Cap Palmerston — A8MW6 — position and weather

sailwx.info

Track history (hours):
 
Tides and Currents Weather Stations Pressure Air Temp Water Temp Dewpoint Dewpoint Depression Visibility Wind Speed Wind Dir Waves Ship Positions

Cap Palmerston

Last reported at 2018-Jan-28 19:43 UTC. Time now 2018-Feb-18 18:38 UTC.
Position N 32°37' W 120°20'.
Warning: this ship's position is 20 days out of date.

Length 186 m; draft 9.3 m.

Type: Ship (hazmat cat A). MMSI: 636091380.

Date/timePositionNaut miles runAvg speedWind from/ knotsBaromVisibWave heightAir tempDewpointWater temp
2018-Jan-28 19:43N 32°37' W 120°20'619.3
2018-Jan-28 19:24N 32°43' W 120°23'1019.2
2018-Jan-28 18:54N 32°51' W 120°28'819.3
2018-Jan-28 18:30N 32°58' W 120°31'1019.2
2018-Jan-28 18:00N 33°07' W 120°36'1019.2
2018-Jan-28 17:30N 33°16' W 120°40'1019.5
2018-Jan-28 17:00N 33°25' W 120°45'1019.4
2018-Jan-28 16:30N 33°34' W 120°50'1019.4
2018-Jan-28 16:00N 33°43' W 120°54'1019.2
2018-Jan-28 15:30N 33°52' W 120°59'1019.3
2018-Jan-28 15:00N 34°00' W 121°03'1019.0
2018-Jan-28 14:30N 34°09' W 121°08'1019.1
2018-Jan-28 14:00N 34°18' W 121°13'918.7
2018-Jan-28 13:30N 34°26' W 121°18'918.5
2018-Jan-28 13:00N 34°35' W 121°22'918.7
2018-Jan-28 12:30N 34°43' W 121°27'918.7
2018-Jan-28 12:00N 34°52' W 121°31'918.6
2018-Jan-28 11:30N 35°00' W 121°36'918.7
2018-Jan-28 11:00N 35°09' W 121°41'918.6
2018-Jan-28 10:30N 35°17' W 121°45'918.5
2018-Jan-28 10:00N 35°26' W 121°50'10019.0
2018-Jan-28 04:42N 36°59' W 122°38'419.0
2018-Jan-28 04:30N 37°02' W 122°40'918.8
2018-Jan-28 04:00N 37°11' W 122°43'1019.0
2018-Jan-28 03:30N 37°20' W 122°44'918.8
2018-Jan-28 03:00N 37°30' W 122°44'918.5
2018-Jan-28 02:30N 37°39' W 122°44'714.8
2018-Jan-28 02:00N 37°46' W 122°40'714.5
2018-Jan-28 01:30N 37°48' W 122°32'612.5
2018-Jan-28 01:00N 37°50' W 122°24'5 9.2
2018-Jan-28 00:31N 37°48' W 122°19'1 1.6
2018-Jan-28 00:01N 37°48' W 122°18'1 1.4
2018-Jan-27 23:29N 37°48' W 122°19'0 0.0
2018-Jan-27 22:59N 37°48' W 122°19'0 0.0
2018-Jan-27 22:29N 37°48' W 122°19'0 0.0
2018-Jan-27 21:59N 37°48' W 122°19'0 0.0
2018-Jan-27 21:29N 37°48' W 122°19'0 0.0
2018-Jan-27 20:59N 37°48' W 122°19'0 0.0
2018-Jan-27 20:29N 37°48' W 122°19'0 0.0
2018-Jan-27 19:59N 37°48' W 122°19'0 0.0
2018-Jan-27 19:29N 37°48' W 122°19'0 0.0
2018-Jan-27 18:59N 37°48' W 122°19'0 0.0
2018-Jan-27 18:29N 37°48' W 122°19'0 0.0
2018-Jan-27 17:59N 37°48' W 122°19'0 0.0
2018-Jan-27 17:29N 37°48' W 122°19'0 0.0
2018-Jan-27 16:59N 37°48' W 122°19'0 0.0
2018-Jan-27 16:29N 37°48' W 122°19'0 0.0
2018-Jan-27 15:59N 37°48' W 122°19'0 0.0
2018-Jan-27 15:29N 37°48' W 122°19'0 0.0
2018-Jan-27 14:59N 37°48' W 122°19'0 0.0
2018-Jan-27 14:29N 37°48' W 122°19'0 0.0
2018-Jan-27 13:59N 37°48' W 122°19'0 0.0
2018-Jan-27 13:29N 37°48' W 122°19'0 0.0
2018-Jan-27 12:59N 37°48' W 122°19'0 0.0
2018-Jan-27 12:29N 37°48' W 122°19'0 0.0
2018-Jan-27 11:59N 37°48' W 122°19'0 0.0
2018-Jan-27 11:29N 37°48' W 122°19'0 0.0
2018-Jan-27 10:59N 37°48' W 122°19'0 0.0
2018-Jan-27 10:29N 37°48' W 122°19'0 0.0
2018-Jan-27 09:59N 37°48' W 122°19'0 0.0
2018-Jan-27 09:29N 37°48' W 122°19'0 0.0
2018-Jan-27 08:59N 37°48' W 122°19'0 0.0
2018-Jan-27 08:29N 37°48' W 122°19'0 0.0
2018-Jan-27 07:59N 37°48' W 122°19'0 0.0
2018-Jan-27 07:29N 37°48' W 122°19'0 0.0
2018-Jan-27 06:59N 37°48' W 122°19'0 0.0
2018-Jan-27 06:29N 37°48' W 122°19'0 0.0
2018-Jan-27 05:59N 37°48' W 122°19'0 0.0
2018-Jan-27 05:29N 37°48' W 122°19'0 0.4
2018-Jan-27 05:01N 37°48' W 122°19'3 6.9
2018-Jan-27 04:30N 37°49' W 122°23'815.5
2018-Jan-27 04:01N 37°47' W 122°33'714.2
2018-Jan-27 03:30N 37°45' W 122°41'5 9.5
2018-Jan-27 03:00N 37°40' W 122°40'713.3
2018-Jan-27 02:30N 37°33' W 122°40'510.7
2018-Jan-27 02:00N 37°28' W 122°40'3 6.6
2018-Jan-27 01:30N 37°25' W 122°40'3 6.4
2018-Jan-27 01:00N 37°21' W 122°40'3 6.3
2018-Jan-27 00:30N 37°18' W 122°40'5 9.9
2018-Jan-27 00:00N 37°15' W 122°44'510.4
2018-Jan-26 23:30N 37°11' W 122°49'5 7.5
2018-Jan-26 22:53N 37°09' W 122°54'1 1.5
2018-Jan-26 22:30N 37°08' W 122°54'510.1
2018-Jan-26 22:00N 37°10' W 122°49'5 9.8
2018-Jan-26 21:30N 37°12' W 122°43'3 5.8
2018-Jan-26 21:00N 37°13' W 122°40'3 5.5
2018-Jan-26 20:30N 37°13' W 122°36'1 1.5
2018-Jan-26 20:00N 37°13' W 122°36'4 7.0
2018-Jan-26 19:30N 37°13' W 122°40'3 6.8
2018-Jan-26 19:00N 37°13' W 122°44'4 7.8
2018-Jan-26 18:30N 37°13' W 122°49'3 6.7
2018-Jan-26 18:00N 37°10' W 122°51'5 8.9
2018-Jan-26 17:30N 37°07' W 122°47'5 9.5
2018-Jan-26 17:00N 37°05' W 122°42'3 6.9
2018-Jan-26 16:30N 37°04' W 122°38'3 6.7
2018-Jan-26 15:59N 37°08' W 122°38'510.4
2018-Jan-26 15:30N 37°13' W 122°39'1 3.0
2018-Jan-26 15:00N 37°12' W 122°38'3 6.1
2018-Jan-26 14:30N 37°09' W 122°37'3 5.9
2018-Jan-26 14:00N 37°06' W 122°37'2 3.7
2018-Jan-26 13:29N 37°08' W 122°38'3 6.9
2018-Jan-26 13:00N 37°11' W 122°38'3 6.2
2018-Jan-26 12:30N 37°14' W 122°39'3 5.8
2018-Jan-26 12:00N 37°11' W 122°39'5 9.6
2018-Jan-26 11:30N 37°06' W 122°38'2 4.3
2018-Jan-26 11:00N 37°08' W 122°38'3 6.9
2018-Jan-26 10:30N 37°12' W 122°39'1 1.7
2018-Jan-26 10:00N 37°12' W 122°38'3 5.4
2018-Jan-26 09:30N 37°09' W 122°37'3 5.5
2018-Jan-26 09:00N 37°06' W 122°36'3 5.5
2018-Jan-26 08:30N 37°04' W 122°35'3 6.6
2018-Jan-26 08:00N 37°00' W 122°34'110 9.7
2018-Jan-25 20:37N 35°22' W 121°31'213.8
2018-Jan-25 20:30N 35°21' W 121°30'714.0
2018-Jan-25 20:00N 35°15' W 121°26'713.4
2018-Jan-25 19:29N 35°09' W 121°22'612.8
2018-Jan-25 19:00N 35°04' W 121°18'612.9
2018-Jan-25 18:30N 34°58' W 121°14'612.8
2018-Jan-25 18:00N 34°53' W 121°09'612.9
2018-Jan-25 17:30N 34°47' W 121°06'713.1
2018-Jan-25 17:00N 34°41' W 121°03'713.1
2018-Jan-25 16:30N 34°35' W 120°59'611.9
2018-Jan-25 16:00N 34°30' W 120°56'611.6
2018-Jan-25 15:30N 34°26' W 120°51'612.6
2018-Jan-25 15:00N 34°24' W 120°44'612.4
2018-Jan-25 14:30N 34°22' W 120°37'612.2
2018-Jan-25 14:00N 34°21' W 120°29'612.1
2018-Jan-25 13:28N 34°19' W 120°22'612.8
2018-Jan-25 13:00N 34°18' W 120°15'612.8
2018-Jan-25 12:30N 34°16' W 120°07'712.3
2018-Jan-25 11:57N 34°14' W 119°59'512.3
2018-Jan-25 11:30N 34°13' W 119°53'612.5
2018-Jan-25 11:00N 34°11' W 119°46'712.2
2018-Jan-25 10:26N 34°09' W 119°37'512.4
2018-Jan-25 10:00N 34°08' W 119°31'612.2
2018-Jan-25 09:30N 34°06' W 119°24'612.8
2018-Jan-25 09:00N 34°05' W 119°17'612.0
2018-Jan-25 08:30N 34°02' W 119°10'612.5
2018-Jan-25 08:00N 33°59' W 119°04'611.3
2018-Jan-25 07:30N 33°56' W 118°58'510.1
2018-Jan-25 07:00N 33°54' W 118°52'5 9.9
2018-Jan-25 06:30N 33°51' W 118°47'5 9.9
2018-Jan-25 06:00N 33°49' W 118°42'5 9.6
2018-Jan-25 05:30N 33°46' W 118°37'5 9.5
2018-Jan-25 04:59N 33°44' W 118°32'5 9.6
2018-Jan-25 04:30N 33°41' W 118°27'510.0
2018-Jan-25 04:00N 33°39' W 118°22'5 9.8
2018-Jan-25 03:30N 33°38' W 118°16'6 9.3
2018-Jan-25 02:54N 33°42' W 118°11'3 7.2
2018-Jan-25 02:29N 33°45' W 118°13'1 0.1
2018-Jan-24 11:43N 33°46' W 118°14'1 3.4
2018-Jan-24 11:21N 33°45' W 118°13'2 7.0
2018-Jan-24 11:00N 33°43' W 118°11'4 8.2
2018-Jan-24 10:30N 33°39' W 118°10'2 4.3
2018-Jan-24 10:00N 33°37' W 118°10'3 6.4
2018-Jan-24 09:30N 33°34' W 118°09'3 6.6
2018-Jan-24 09:00N 33°31' W 118°08'510.0
2018-Jan-24 08:30N 33°26' W 118°06'510.2
2018-Jan-24 08:00N 33°21' W 118°04'510.1
2018-Jan-24 07:30N 33°17' W 118°02'510.1
2018-Jan-24 07:00N 33°12' W 117°60'510.1
2018-Jan-24 06:31N 33°07' W 117°58'713.2
2018-Jan-24 06:00N 33°01' W 117°54'5 9.0
2018-Jan-24 05:30N 32°57' W 117°52'611.1
2018-Jan-24 05:00N 32°52' W 117°49'816.9
2018-Jan-24 04:30N 32°44' W 117°45'816.9
2018-Jan-24 04:00N 32°37' W 117°40'917.2
2018-Jan-24 03:30N 32°29' W 117°36'917.6
2018-Jan-24 03:00N 32°21' W 117°31'1217.4
2018-Jan-24 02:20N 32°11' W 117°25'3915.2
2018-Jan-23 23:46N 31°36' W 117°04'1216.2
2018-Jan-23 23:03N 31°25' W 116°58'1416.0
2018-Jan-23 22:11N 31°13' W 116°51'415.7
2018-Jan-23 21:54N 31°09' W 116°48'8316.2
2018-Jan-23 16:48N 29°53' W 116°11'  
Track history (hours):
 
Tides and Currents Weather Stations Pressure Air Temp Water Temp Dewpoint Dewpoint Depression Visibility Wind Speed Wind Dir Waves Ship Positions

Cap Palmerston

Last reported at 2018-Jan-28 19:43 UTC. Time now 2018-Feb-18 18:38 UTC.
Position N 32°37' W 120°20'.
Warning: this ship's position is 20 days out of date.

Length 186 m; draft 9.3 m.

Type: Ship (hazmat cat A). MMSI: 636091380.

Date/timePositionNaut miles runAvg speedWind from/ knotsBaromVisibWave heightAir tempDewpointWater temp
2018-Jan-28 19:43N 32°37' W 120°20'619.3
2018-Jan-28 19:24N 32°43' W 120°23'1019.2
2018-Jan-28 18:54N 32°51' W 120°28'819.3
2018-Jan-28 18:30N 32°58' W 120°31'1019.2
2018-Jan-28 18:00N 33°07' W 120°36'1019.2
2018-Jan-28 17:30N 33°16' W 120°40'1019.5
2018-Jan-28 17:00N 33°25' W 120°45'1019.4
2018-Jan-28 16:30N 33°34' W 120°50'1019.4
2018-Jan-28 16:00N 33°43' W 120°54'1019.2
2018-Jan-28 15:30N 33°52' W 120°59'1019.3
2018-Jan-28 15:00N 34°00' W 121°03'1019.0
2018-Jan-28 14:30N 34°09' W 121°08'1019.1
2018-Jan-28 14:00N 34°18' W 121°13'918.7
2018-Jan-28 13:30N 34°26' W 121°18'918.5
2018-Jan-28 13:00N 34°35' W 121°22'918.7
2018-Jan-28 12:30N 34°43' W 121°27'918.7
2018-Jan-28 12:00N 34°52' W 121°31'918.6
2018-Jan-28 11:30N 35°00' W 121°36'918.7
2018-Jan-28 11:00N 35°09' W 121°41'918.6
2018-Jan-28 10:30N 35°17' W 121°45'918.5
2018-Jan-28 10:00N 35°26' W 121°50'10019.0
2018-Jan-28 04:42N 36°59' W 122°38'419.0
2018-Jan-28 04:30N 37°02' W 122°40'918.8
2018-Jan-28 04:00N 37°11' W 122°43'1019.0
2018-Jan-28 03:30N 37°20' W 122°44'918.8
2018-Jan-28 03:00N 37°30' W 122°44'918.5
2018-Jan-28 02:30N 37°39' W 122°44'714.8
2018-Jan-28 02:00N 37°46' W 122°40'714.5
2018-Jan-28 01:30N 37°48' W 122°32'612.5
2018-Jan-28 01:00N 37°50' W 122°24'5 9.2
2018-Jan-28 00:31N 37°48' W 122°19'1 1.6
2018-Jan-28 00:01N 37°48' W 122°18'1 1.4
2018-Jan-27 23:29N 37°48' W 122°19'0 0.0
2018-Jan-27 22:59N 37°48' W 122°19'0 0.0
2018-Jan-27 22:29N 37°48' W 122°19'0 0.0
2018-Jan-27 21:59N 37°48' W 122°19'0 0.0
2018-Jan-27 21:29N 37°48' W 122°19'0 0.0
2018-Jan-27 20:59N 37°48' W 122°19'0 0.0
2018-Jan-27 20:29N 37°48' W 122°19'0 0.0
2018-Jan-27 19:59N 37°48' W 122°19'0 0.0
2018-Jan-27 19:29N 37°48' W 122°19'0 0.0
2018-Jan-27 18:59N 37°48' W 122°19'0 0.0
2018-Jan-27 18:29N 37°48' W 122°19'0 0.0
2018-Jan-27 17:59N 37°48' W 122°19'0 0.0
2018-Jan-27 17:29N 37°48' W 122°19'0 0.0
2018-Jan-27 16:59N 37°48' W 122°19'0 0.0
2018-Jan-27 16:29N 37°48' W 122°19'0 0.0
2018-Jan-27 15:59N 37°48' W 122°19'0 0.0
2018-Jan-27 15:29N 37°48' W 122°19'0 0.0
2018-Jan-27 14:59N 37°48' W 122°19'0 0.0
2018-Jan-27 14:29N 37°48' W 122°19'0 0.0
2018-Jan-27 13:59N 37°48' W 122°19'0 0.0
2018-Jan-27 13:29N 37°48' W 122°19'0 0.0
2018-Jan-27 12:59N 37°48' W 122°19'0 0.0
2018-Jan-27 12:29N 37°48' W 122°19'0 0.0
2018-Jan-27 11:59N 37°48' W 122°19'0 0.0
2018-Jan-27 11:29N 37°48' W 122°19'0 0.0
2018-Jan-27 10:59N 37°48' W 122°19'0 0.0
2018-Jan-27 10:29N 37°48' W 122°19'0 0.0
2018-Jan-27 09:59N 37°48' W 122°19'0 0.0
2018-Jan-27 09:29N 37°48' W 122°19'0 0.0
2018-Jan-27 08:59N 37°48' W 122°19'0 0.0
2018-Jan-27 08:29N 37°48' W 122°19'0 0.0
2018-Jan-27 07:59N 37°48' W 122°19'0 0.0
2018-Jan-27 07:29N 37°48' W 122°19'0 0.0
2018-Jan-27 06:59N 37°48' W 122°19'0 0.0
2018-Jan-27 06:29N 37°48' W 122°19'0 0.0
2018-Jan-27 05:59N 37°48' W 122°19'0 0.0
2018-Jan-27 05:29N 37°48' W 122°19'0 0.4
2018-Jan-27 05:01N 37°48' W 122°19'3 6.9
2018-Jan-27 04:30N 37°49' W 122°23'815.5
2018-Jan-27 04:01N 37°47' W 122°33'714.2
2018-Jan-27 03:30N 37°45' W 122°41'5 9.5
2018-Jan-27 03:00N 37°40' W 122°40'713.3
2018-Jan-27 02:30N 37°33' W 122°40'510.7
2018-Jan-27 02:00N 37°28' W 122°40'3 6.6
2018-Jan-27 01:30N 37°25' W 122°40'3 6.4
2018-Jan-27 01:00N 37°21' W 122°40'3 6.3
2018-Jan-27 00:30N 37°18' W 122°40'5 9.9
2018-Jan-27 00:00N 37°15' W 122°44'510.4
2018-Jan-26 23:30N 37°11' W 122°49'5 7.5
2018-Jan-26 22:53N 37°09' W 122°54'1 1.5
2018-Jan-26 22:30N 37°08' W 122°54'510.1
2018-Jan-26 22:00N 37°10' W 122°49'5 9.8
2018-Jan-26 21:30N 37°12' W 122°43'3 5.8
2018-Jan-26 21:00N 37°13' W 122°40'3 5.5
2018-Jan-26 20:30N 37°13' W 122°36'1 1.5
2018-Jan-26 20:00N 37°13' W 122°36'4 7.0
2018-Jan-26 19:30N 37°13' W 122°40'3 6.8
2018-Jan-26 19:00N 37°13' W 122°44'4 7.8
2018-Jan-26 18:30N 37°13' W 122°49'3 6.7
2018-Jan-26 18:00N 37°10' W 122°51'5 8.9
2018-Jan-26 17:30N 37°07' W 122°47'5 9.5
2018-Jan-26 17:00N 37°05' W 122°42'3 6.9
2018-Jan-26 16:30N 37°04' W 122°38'3 6.7
2018-Jan-26 15:59N 37°08' W 122°38'510.4
2018-Jan-26 15:30N 37°13' W 122°39'1 3.0
2018-Jan-26 15:00N 37°12' W 122°38'3 6.1
2018-Jan-26 14:30N 37°09' W 122°37'3 5.9
2018-Jan-26 14:00N 37°06' W 122°37'2 3.7
2018-Jan-26 13:29N 37°08' W 122°38'3 6.9
2018-Jan-26 13:00N 37°11' W 122°38'3 6.2
2018-Jan-26 12:30N 37°14' W 122°39'3 5.8
2018-Jan-26 12:00N 37°11' W 122°39'5 9.6
2018-Jan-26 11:30N 37°06' W 122°38'2 4.3
2018-Jan-26 11:00N 37°08' W 122°38'3 6.9
2018-Jan-26 10:30N 37°12' W 122°39'1 1.7
2018-Jan-26 10:00N 37°12' W 122°38'3 5.4
2018-Jan-26 09:30N 37°09' W 122°37'3 5.5
2018-Jan-26 09:00N 37°06' W 122°36'3 5.5
2018-Jan-26 08:30N 37°04' W 122°35'3 6.6
2018-Jan-26 08:00N 37°00' W 122°34'110 9.7
2018-Jan-25 20:37N 35°22' W 121°31'213.8
2018-Jan-25 20:30N 35°21' W 121°30'714.0
2018-Jan-25 20:00N 35°15' W 121°26'713.4
2018-Jan-25 19:29N 35°09' W 121°22'612.8
2018-Jan-25 19:00N 35°04' W 121°18'612.9
2018-Jan-25 18:30N 34°58' W 121°14'612.8
2018-Jan-25 18:00N 34°53' W 121°09'612.9
2018-Jan-25 17:30N 34°47' W 121°06'713.1
2018-Jan-25 17:00N 34°41' W 121°03'713.1
2018-Jan-25 16:30N 34°35' W 120°59'611.9
2018-Jan-25 16:00N 34°30' W 120°56'611.6
2018-Jan-25 15:30N 34°26' W 120°51'612.6
2018-Jan-25 15:00N 34°24' W 120°44'612.4
2018-Jan-25 14:30N 34°22' W 120°37'612.2
2018-Jan-25 14:00N 34°21' W 120°29'612.1
2018-Jan-25 13:28N 34°19' W 120°22'612.8
2018-Jan-25 13:00N 34°18' W 120°15'612.8
2018-Jan-25 12:30N 34°16' W 120°07'712.3
2018-Jan-25 11:57N 34°14' W 119°59'512.3
2018-Jan-25 11:30N 34°13' W 119°53'612.5
2018-Jan-25 11:00N 34°11' W 119°46'712.2
2018-Jan-25 10:26N 34°09' W 119°37'512.4
2018-Jan-25 10:00N 34°08' W 119°31'612.2
2018-Jan-25 09:30N 34°06' W 119°24'612.8
2018-Jan-25 09:00N 34°05' W 119°17'612.0
2018-Jan-25 08:30N 34°02' W 119°10'612.5
2018-Jan-25 08:00N 33°59' W 119°04'611.3
2018-Jan-25 07:30N 33°56' W 118°58'510.1
2018-Jan-25 07:00N 33°54' W 118°52'5 9.9
2018-Jan-25 06:30N 33°51' W 118°47'5 9.9
2018-Jan-25 06:00N 33°49' W 118°42'5 9.6
2018-Jan-25 05:30N 33°46' W 118°37'5 9.5
2018-Jan-25 04:59N 33°44' W 118°32'5 9.6
2018-Jan-25 04:30N 33°41' W 118°27'510.0
2018-Jan-25 04:00N 33°39' W 118°22'5 9.8
2018-Jan-25 03:30N 33°38' W 118°16'6 9.3
2018-Jan-25 02:54N 33°42' W 118°11'3 7.2
2018-Jan-25 02:29N 33°45' W 118°13'1 0.1
2018-Jan-24 11:43N 33°46' W 118°14'1 3.4
2018-Jan-24 11:21N 33°45' W 118°13'2 7.0
2018-Jan-24 11:00N 33°43' W 118°11'4 8.2
2018-Jan-24 10:30N 33°39' W 118°10'2 4.3
2018-Jan-24 10:00N 33°37' W 118°10'3 6.4
2018-Jan-24 09:30N 33°34' W 118°09'3 6.6
2018-Jan-24 09:00N 33°31' W 118°08'510.0
2018-Jan-24 08:30N 33°26' W 118°06'510.2
2018-Jan-24 08:00N 33°21' W 118°04'510.1
2018-Jan-24 07:30N 33°17' W 118°02'510.1
2018-Jan-24 07:00N 33°12' W 117°60'510.1
2018-Jan-24 06:31N 33°07' W 117°58'713.2
2018-Jan-24 06:00N 33°01' W 117°54'5 9.0
2018-Jan-24 05:30N 32°57' W 117°52'611.1
2018-Jan-24 05:00N 32°52' W 117°49'816.9
2018-Jan-24 04:30N 32°44' W 117°45'816.9
2018-Jan-24 04:00N 32°37' W 117°40'917.2
2018-Jan-24 03:30N 32°29' W 117°36'917.6
2018-Jan-24 03:00N 32°21' W 117°31'1217.4
2018-Jan-24 02:20N 32°11' W 117°25'3915.2
2018-Jan-23 23:46N 31°36' W 117°04'1216.2
2018-Jan-23 23:03N 31°25' W 116°58'1416.0
2018-Jan-23 22:11N 31°13' W 116°51'415.7
2018-Jan-23 21:54N 31°09' W 116°48'8316.2
2018-Jan-23 16:48N 29°53' W 116°11'  

Dump ship's entire track history